createdAt,value
2023-11-04T00:00:14.650Z,35.17
2023-11-04T00:02:43.742Z,33.47
2023-11-04T00:05:11.899Z,31.90
2023-11-04T00:07:39.935Z,35.33
2023-11-04T00:10:09.287Z,35.00
2023-11-04T00:12:37.092Z,35.77
2023-11-04T00:15:05.198Z,36.43
2023-11-04T00:17:32.912Z,35.30
2023-11-04T00:20:03.974Z,35.27
2023-11-04T00:22:31.904Z,35.60
2023-11-04T00:24:59.561Z,36.27
2023-11-04T00:27:27.485Z,38.30
2023-11-04T00:29:55.945Z,34.30
2023-11-04T00:32:24.723Z,34.37
2023-11-04T00:34:52.621Z,36.20
2023-11-04T00:37:23.094Z,35.03
2023-11-04T00:39:51.347Z,35.83
2023-11-04T00:42:19.442Z,31.93
2023-11-04T00:44:47.149Z,35.20
2023-11-04T00:47:14.917Z,32.20
2023-11-04T00:49:43.256Z,29.10
2023-11-04T00:52:11.416Z,28.07
2023-11-04T00:54:40.771Z,28.03
2023-11-04T00:57:08.742Z,28.70
2023-11-04T00:59:36.476Z,28.57
2023-11-04T01:02:04.588Z,30.10
2023-11-04T01:04:32.491Z,29.10
2023-11-04T01:07:01.077Z,27.77
2023-11-04T01:09:29.289Z,28.87
2023-11-04T01:11:58.293Z,29.23
2023-11-04T01:14:26.308Z,31.63
2023-11-04T01:16:54.821Z,28.47
2023-11-04T01:19:22.700Z,25.60
2023-11-04T01:21:50.829Z,25.63
2023-11-04T01:24:19.231Z,27.40
2023-11-04T01:26:47.028Z,24.97
2023-11-04T01:29:16.987Z,25.23
2023-11-04T01:31:45.882Z,23.83
2023-11-04T01:34:13.779Z,24.50
2023-11-04T01:36:41.657Z,23.40
2023-11-04T01:39:09.610Z,27.30
2023-11-04T01:41:37.328Z,25.70
2023-11-04T01:44:05.525Z,25.50
2023-11-04T01:46:34.999Z,25.87
2023-11-04T01:49:02.943Z,25.20
2023-11-04T01:51:31.740Z,24.70
2023-11-04T01:53:59.691Z,24.97
2023-11-04T01:56:31.312Z,26.07
2023-11-04T01:59:00.413Z,24.40
2023-11-04T02:01:28.331Z,24.50
2023-11-04T02:03:58.222Z,22.73
2023-11-04T02:06:26.323Z,23.87
2023-11-04T02:08:55.905Z,21.40
2023-11-04T02:11:24.273Z,20.53
2023-11-04T02:13:52.557Z,23.90
2023-11-04T02:16:20.239Z,21.13
2023-11-04T02:18:47.992Z,21.63
2023-11-04T02:21:17.842Z,22.90
2023-11-04T02:23:45.667Z,20.57
2023-11-04T02:26:13.661Z,24.00
2023-11-04T02:28:41.517Z,23.50
2023-11-04T02:31:09.563Z,22.33
2023-11-04T02:33:37.390Z,20.93
2023-11-04T02:36:05.785Z,20.50
2023-11-04T02:38:34.925Z,21.10
2023-11-04T02:41:02.658Z,22.63
2023-11-04T02:43:30.686Z,20.50
2023-11-04T02:45:58.379Z,22.13
2023-11-04T02:48:26.440Z,22.10
2023-11-04T02:50:54.526Z,22.83
2023-11-04T02:53:22.214Z,24.17
2023-11-04T02:55:51.394Z,19.83
2023-11-04T02:58:19.466Z,20.97
2023-11-04T03:00:47.183Z,21.47
2023-11-04T03:03:15.944Z,22.03
2023-11-04T03:05:43.940Z,23.30
2023-11-04T03:08:11.659Z,22.17
2023-11-04T03:10:40.082Z,20.50
2023-11-04T03:13:09.116Z,21.63
2023-11-04T03:15:37.272Z,22.83
2023-11-04T03:18:05.158Z,20.87
2023-11-04T03:20:32.880Z,22.43
2023-11-04T03:23:00.953Z,25.13
2023-11-04T03:25:28.626Z,24.30
2023-11-04T03:27:56.620Z,22.87
2023-11-04T03:30:26.127Z,26.60
2023-11-04T03:32:53.820Z,26.50
2023-11-04T03:35:21.928Z,25.03
2023-11-04T03:37:49.554Z,26.97
2023-11-04T03:40:18.132Z,27.03
2023-11-04T03:42:46.202Z,25.90
2023-11-04T03:45:13.879Z,28.13
2023-11-04T03:47:43.225Z,27.60
2023-11-04T03:50:11.193Z,24.83
2023-11-04T03:52:39.110Z,26.53
2023-11-04T03:55:07.209Z,26.33
2023-11-04T03:57:34.963Z,28.60
2023-11-04T04:00:03.971Z,28.87
2023-11-04T04:02:39.562Z,24.93
2023-11-04T04:05:09.663Z,26.73
2023-11-04T04:07:37.396Z,26.90
2023-11-04T04:10:06.158Z,25.47
2023-11-04T04:12:34.020Z,29.17
2023-11-04T04:15:02.821Z,31.60
2023-11-04T04:17:30.846Z,26.27
2023-11-04T04:19:58.989Z,28.43
2023-11-04T04:22:28.129Z,29.60
2023-11-04T04:24:55.957Z,27.50
2023-11-04T04:27:24.123Z,29.80
2023-11-04T04:29:51.806Z,28.33
2023-11-04T04:32:20.205Z,28.77
2023-11-04T04:34:48.117Z,30.70
2023-11-04T04:37:15.967Z,25.67
2023-11-04T04:39:46.228Z,27.93
2023-11-04T04:42:13.986Z,27.83
2023-11-04T04:44:41.649Z,31.60
2023-11-04T04:47:09.709Z,27.87
2023-11-04T04:49:37.476Z,30.93
2023-11-04T04:52:05.861Z,29.37
2023-11-04T04:54:33.684Z,29.67
2023-11-04T04:57:02.700Z,29.13
2023-11-04T04:59:30.429Z,31.23
2023-11-04T05:01:58.932Z,31.73
2023-11-04T05:04:26.641Z,29.13
2023-11-04T05:06:54.771Z,28.97
2023-11-04T05:09:22.982Z,27.93
2023-11-04T05:11:50.943Z,30.10
2023-11-04T05:14:20.401Z,29.57
2023-11-04T05:16:48.392Z,31.20
2023-11-04T05:19:17.136Z,34.10
2023-11-04T05:21:45.686Z,34.60
2023-11-04T05:24:13.413Z,32.90
2023-11-04T05:26:42.180Z,31.17
2023-11-04T05:29:10.633Z,30.47
2023-11-04T05:31:39.973Z,30.40
2023-11-04T05:34:08.834Z,32.10
2023-11-04T05:36:36.928Z,30.87
2023-11-04T05:39:06.046Z,32.43
2023-11-04T05:41:34.020Z,28.47
2023-11-04T05:44:01.693Z,28.57
2023-11-04T05:46:29.581Z,30.13
2023-11-04T05:48:58.750Z,27.50
2023-11-04T05:51:27.479Z,29.13
2023-11-04T05:53:55.186Z,27.73
2023-11-04T05:56:23.262Z,26.30
2023-11-04T05:58:50.927Z,27.23
2023-11-04T06:01:24.664Z,28.53
2023-11-04T06:03:52.892Z,26.40
2023-11-04T06:06:23.378Z,26.17
2023-11-04T06:08:51.171Z,30.57
2023-11-04T06:11:22.540Z,28.40
2023-11-04T06:13:51.536Z,27.00
2023-11-04T06:16:19.465Z,28.03
2023-11-04T06:18:47.929Z,27.80
2023-11-04T06:21:17.413Z,29.30
2023-11-04T06:23:46.565Z,26.57
2023-11-04T06:26:23.109Z,27.77
2023-11-04T06:28:50.948Z,23.30
2023-11-04T06:31:22.560Z,27.17
2023-11-04T06:33:50.737Z,24.37
2023-11-04T06:36:19.627Z,25.10
2023-11-04T06:38:48.650Z,24.57
2023-11-04T06:41:18.269Z,27.07
2023-11-04T06:43:47.185Z,27.27
2023-11-04T06:46:14.970Z,24.97
2023-11-04T06:48:43.753Z,24.83
2023-11-04T06:51:11.808Z,26.77
2023-11-04T06:53:39.822Z,25.77
2023-11-04T06:56:10.431Z,28.27
2023-11-04T06:58:38.164Z,27.03
2023-11-04T07:01:06.150Z,27.70
2023-11-04T07:03:36.414Z,24.07
2023-11-04T07:06:04.667Z,26.63
2023-11-04T07:08:32.954Z,24.30
2023-11-04T07:11:00.614Z,28.57
2023-11-04T07:13:30.134Z,28.87
2023-11-04T07:15:58.769Z,27.97
2023-11-04T07:21:17.919Z,24.67
2023-11-04T07:23:45.597Z,31.33
2023-11-04T07:26:13.247Z,31.83
2023-11-04T07:28:44.970Z,34.20
2023-11-04T07:31:17.315Z,34.50
2023-11-04T07:33:45.443Z,37.17
2023-11-04T07:36:13.591Z,39.37
2023-11-04T07:38:41.433Z,39.53
2023-11-04T07:41:09.615Z,39.13
2023-11-04T07:43:37.629Z,39.23
2023-11-04T07:46:07.324Z,40.40
2023-11-04T07:48:35.601Z,45.47
2023-11-04T07:51:03.370Z,37.83
2023-11-04T07:53:31.032Z,39.03
2023-11-04T07:55:59.004Z,43.13
2023-11-04T07:58:26.866Z,41.90
2023-11-04T08:00:55.628Z,40.10
2023-11-04T08:03:25.171Z,43.73
2023-11-04T08:05:53.218Z,43.60
2023-11-04T08:08:21.550Z,43.88
2023-11-04T08:10:49.577Z,44.47
2023-11-04T08:13:17.241Z,46.37
2023-11-04T08:15:44.915Z,42.83
2023-11-04T08:18:12.869Z,48.25
2023-11-04T08:20:41.900Z,48.90
2023-11-04T08:23:09.609Z,51.13
2023-11-04T08:25:37.626Z,48.20
2023-11-04T08:28:05.662Z,55.42
2023-11-04T08:30:34.037Z,52.85
2023-11-04T08:33:02.043Z,48.28
2023-11-04T08:35:30.701Z,51.25
2023-11-04T08:37:59.719Z,52.38
2023-11-04T08:40:28.100Z,49.83
2023-11-04T08:42:55.927Z,53.60
2023-11-04T08:45:25.239Z,50.30
2023-11-04T08:47:54.051Z,50.00
2023-11-04T08:50:21.977Z,50.10
2023-11-04T08:52:49.770Z,48.95
2023-11-04T08:55:19.595Z,56.67
2023-11-04T08:57:47.896Z,53.13
2023-11-04T09:00:16.722Z,51.15
2023-11-04T09:02:44.937Z,52.80
2023-11-04T09:05:17.204Z,50.05
2023-11-04T09:07:47.916Z,45.38
2023-11-04T09:10:16.112Z,46.97
2023-11-04T09:12:45.258Z,51.95
2023-11-04T09:15:13.816Z,49.22
2023-11-04T09:17:42.768Z,47.75
2023-11-04T09:20:11.859Z,46.50
2023-11-04T09:22:40.577Z,47.50
2023-11-04T09:25:10.678Z,48.20
2023-11-04T09:27:39.035Z,50.00
2023-11-04T09:30:10.035Z,47.47
2023-11-04T09:32:37.885Z,55.38
2023-11-04T09:35:06.383Z,53.65
2023-11-04T09:37:34.843Z,49.72
2023-11-04T09:40:02.708Z,47.40
2023-11-04T09:42:32.467Z,52.92
2023-11-04T09:45:01.085Z,50.00
2023-11-04T09:47:30.866Z,57.25
2023-11-04T09:49:58.675Z,56.58
2023-11-04T09:52:29.094Z,43.13
2023-11-04T09:54:58.858Z,45.10
2023-11-04T09:57:27.297Z,43.72
2023-11-04T09:59:55.106Z,45.80
2023-11-04T10:02:24.088Z,47.58
2023-11-04T10:04:54.151Z,48.00
2023-11-04T10:07:23.995Z,43.67
2023-11-04T10:09:52.092Z,45.13
2023-11-04T10:12:20.090Z,47.75
2023-11-04T10:14:48.385Z,43.17
2023-11-04T10:17:16.166Z,48.70
2023-11-04T10:19:44.546Z,43.80
2023-11-04T10:22:15.571Z,42.63
2023-11-04T10:24:43.678Z,45.97
2023-11-04T10:27:11.430Z,44.35
2023-11-04T10:29:39.660Z,47.28
2023-11-04T10:32:13.371Z,48.58
2023-11-04T10:34:45.912Z,47.63
2023-11-04T10:37:20.215Z,46.05
2023-11-04T10:39:51.156Z,45.20
2023-11-04T10:42:22.950Z,44.63
2023-11-04T10:44:58.863Z,42.03
2023-11-04T10:47:36.388Z,39.00
2023-11-04T10:50:10.910Z,39.42
2023-11-04T10:52:51.309Z,43.53
2023-11-04T10:55:23.720Z,45.92
2023-11-04T10:58:04.699Z,46.45
2023-11-04T11:00:36.104Z,40.05
2023-11-04T11:03:05.168Z,42.00
2023-11-04T11:05:35.234Z,46.88
2023-11-04T11:08:06.030Z,46.28
2023-11-04T11:10:40.158Z,46.40
2023-11-04T11:13:13.197Z,42.95
2023-11-04T11:15:42.230Z,44.83
2023-11-04T11:18:12.577Z,47.17
2023-11-04T11:20:40.948Z,45.63
2023-11-04T11:23:12.154Z,47.97
2023-11-04T11:25:41.960Z,48.95
2023-11-04T11:28:21.878Z,47.13
2023-11-04T11:30:54.757Z,47.70
2023-11-04T11:33:29.131Z,45.22
2023-11-04T11:36:01.250Z,50.25
2023-11-04T11:38:31.839Z,43.67
2023-11-04T11:41:05.573Z,45.22
2023-11-04T11:43:33.735Z,44.70
2023-11-04T11:46:07.061Z,44.33
2023-11-04T11:48:39.601Z,43.78
2023-11-04T11:51:08.683Z,53.42
2023-11-04T11:53:39.189Z,50.55
2023-11-04T11:56:07.323Z,47.00
2023-11-04T11:58:36.264Z,47.75
2023-11-04T12:01:05.320Z,50.45
2023-11-04T12:03:33.572Z,43.15
2023-11-04T12:06:01.698Z,47.00
2023-11-04T12:08:29.550Z,46.72
2023-11-04T12:10:58.736Z,42.78
2023-11-04T12:13:26.814Z,47.85
2023-11-04T12:15:54.789Z,49.90
2023-11-04T12:18:22.692Z,49.65
2023-11-04T12:20:51.202Z,47.10
2023-11-04T12:23:18.893Z,45.88
2023-11-04T12:25:47.422Z,47.28
2023-11-04T12:28:16.777Z,51.30
2023-11-04T12:30:44.478Z,48.80
2023-11-04T12:33:12.215Z,45.35
2023-11-04T12:35:42.288Z,46.17
2023-11-04T12:38:11.219Z,45.17
2023-11-04T12:40:39.444Z,47.78
2023-11-04T12:43:07.846Z,46.78
2023-11-04T12:45:37.236Z,49.67
2023-11-04T12:48:05.365Z,44.38
2023-11-04T12:50:33.042Z,47.33
2023-11-04T12:53:03.079Z,45.08
2023-11-04T12:55:31.371Z,45.13
2023-11-04T12:57:59.084Z,50.00
2023-11-04T13:00:27.189Z,55.50
2023-11-04T13:02:56.572Z,56.00
2023-11-04T13:05:25.080Z,56.13
2023-11-04T13:07:53.263Z,48.08
2023-11-04T13:10:22.735Z,53.40
2023-11-04T13:12:51.881Z,50.03
2023-11-04T13:15:20.370Z,49.25
2023-11-04T13:17:48.450Z,48.10
2023-11-04T13:20:18.947Z,42.35
2023-11-04T13:22:46.903Z,40.57
2023-11-04T13:25:14.820Z,38.57
2023-11-04T13:27:42.918Z,37.37
2023-11-04T13:30:14.679Z,37.47
2023-11-04T13:32:43.053Z,43.83
2023-11-04T13:35:12.178Z,44.93
2023-11-04T13:37:41.479Z,48.43
2023-11-04T13:40:10.498Z,52.40
2023-11-04T13:42:38.402Z,54.43
2023-11-04T13:45:07.949Z,57.83
2023-11-04T13:47:38.105Z,51.43
2023-11-04T13:50:07.848Z,51.00
2023-11-04T13:52:35.886Z,52.80
2023-11-04T13:55:07.713Z,50.43
2023-11-04T13:57:35.657Z,48.87
2023-11-04T14:00:03.487Z,49.90
2023-11-04T14:02:32.915Z,52.07
2023-11-04T14:05:01.677Z,48.10
2023-11-04T14:07:29.583Z,44.27
2023-11-04T14:09:57.810Z,43.47
2023-11-04T14:12:26.820Z,41.83
2023-11-04T14:14:55.131Z,42.70
2023-11-04T14:17:23.212Z,43.23
2023-11-04T14:19:50.874Z,48.33
2023-11-04T14:22:19.421Z,47.50
2023-11-04T14:24:47.869Z,48.63
2023-11-04T14:27:16.188Z,50.17
2023-11-04T14:29:45.288Z,48.30
2023-11-04T14:32:13.572Z,52.93
2023-11-04T14:34:41.280Z,53.87
2023-11-04T14:37:10.293Z,54.00
2023-11-04T14:39:38.642Z,52.97
2023-11-04T14:42:06.825Z,49.57
2023-11-04T14:44:34.538Z,50.90
2023-11-04T14:47:03.707Z,49.97
2023-11-04T14:49:31.557Z,53.00
2023-11-04T14:51:59.381Z,47.80
2023-11-04T14:54:27.566Z,55.10
2023-11-04T14:56:55.491Z,49.20
2023-11-04T14:59:23.215Z,45.87
2023-11-04T15:01:53.318Z,46.03
2023-11-04T15:04:22.875Z,47.40
2023-11-04T15:06:50.922Z,45.17
2023-11-04T15:09:19.487Z,44.50
2023-11-04T15:11:47.335Z,45.57
2023-11-04T15:14:15.130Z,49.13
2023-11-04T15:16:43.088Z,45.67
2023-11-04T15:19:10.924Z,45.53
2023-11-04T15:21:40.183Z,45.70
2023-11-04T15:24:09.240Z,44.80
2023-11-04T15:26:36.982Z,45.03
2023-11-04T15:29:04.706Z,44.13
2023-11-04T15:31:32.662Z,45.00
2023-11-04T15:34:00.578Z,39.27
2023-11-04T15:36:28.624Z,39.27
2023-11-04T15:38:58.379Z,40.37
2023-11-04T15:41:26.256Z,41.60
2023-11-04T15:43:54.273Z,37.47
2023-11-04T15:46:22.659Z,35.37
2023-11-04T15:48:50.897Z,36.23
2023-11-04T15:51:19.017Z,38.17
2023-11-04T15:53:46.770Z,41.10
2023-11-04T15:56:15.957Z,39.27
2023-11-04T15:58:44.113Z,39.37
2023-11-04T16:01:11.987Z,38.63
2023-11-04T16:03:42.217Z,38.77
2023-11-04T16:06:10.883Z,37.33
2023-11-04T16:08:38.692Z,33.83
2023-11-04T16:11:07.106Z,37.40
2023-11-04T16:13:36.818Z,41.17
2023-11-04T16:16:06.846Z,38.50
2023-11-04T16:18:34.935Z,40.10
2023-11-04T16:21:03.572Z,41.67
2023-11-04T16:23:31.710Z,38.77
2023-11-04T16:25:59.533Z,38.07
2023-11-04T16:28:27.733Z,42.33
2023-11-04T16:30:56.841Z,41.77
2023-11-04T16:33:24.674Z,42.87
2023-11-04T16:35:52.679Z,39.37
2023-11-04T16:38:20.428Z,40.77
2023-11-04T16:40:48.050Z,42.23
2023-11-04T16:43:16.187Z,40.13
2023-11-04T16:45:44.102Z,43.40
2023-11-04T16:48:14.450Z,40.87
2023-11-04T16:50:42.229Z,40.47
2023-11-04T16:53:10.574Z,47.73
2023-11-04T16:55:38.257Z,45.13
2023-11-04T16:58:05.942Z,42.70
2023-11-04T17:00:34.672Z,41.23
2023-11-04T17:03:02.424Z,42.00
2023-11-04T17:05:31.698Z,46.10
2023-11-04T17:08:00.140Z,46.97
2023-11-04T17:10:27.966Z,39.27
2023-11-04T17:12:56.444Z,46.90
2023-11-04T17:15:24.418Z,45.77
2023-11-04T17:17:52.358Z,47.73
2023-11-04T17:20:20.183Z,46.47
2023-11-04T17:22:49.427Z,46.50
2023-11-04T17:25:17.205Z,45.73
2023-11-04T17:27:45.822Z,45.23
2023-11-04T17:30:14.881Z,49.77
2023-11-04T17:32:42.571Z,46.57
2023-11-04T17:35:10.278Z,46.70
2023-11-04T17:37:41.123Z,46.13
2023-11-04T17:40:11.860Z,49.03
2023-11-04T17:42:43.209Z,39.83
2023-11-04T17:45:13.078Z,45.00
2023-11-04T17:47:41.423Z,42.17
2023-11-04T17:50:10.386Z,44.00
2023-11-04T17:52:39.578Z,46.40
2023-11-04T17:55:09.886Z,44.83
2023-11-04T17:57:39.058Z,45.53
2023-11-04T18:00:10.395Z,46.35
2023-11-04T18:02:41.614Z,41.30
2023-11-04T18:05:09.716Z,44.80
2023-11-04T18:07:37.532Z,43.33
2023-11-04T18:10:06.567Z,44.90
2023-11-04T18:12:34.411Z,44.75
2023-11-04T18:15:03.472Z,48.03
2023-11-04T18:17:31.731Z,46.88
2023-11-04T18:19:59.813Z,52.80
2023-11-04T18:22:27.702Z,49.95
2023-11-04T18:24:56.919Z,50.22
2023-11-04T18:27:35.498Z,50.67
2023-11-04T18:30:15.400Z,52.50
2023-11-04T18:32:43.259Z,51.50
2023-11-04T18:35:14.144Z,55.13
2023-11-04T18:37:42.280Z,51.47
2023-11-04T18:40:11.324Z,54.83
2023-11-04T18:42:39.077Z,51.55
2023-11-04T18:45:07.778Z,48.78
2023-11-04T18:47:37.077Z,51.20
2023-11-04T18:50:05.278Z,47.53
2023-11-04T18:52:34.946Z,51.35
2023-11-04T18:55:03.750Z,50.10
2023-11-04T18:57:32.163Z,49.97
2023-11-04T19:00:00.269Z,47.55
2023-11-04T19:02:28.003Z,48.85
2023-11-04T19:05:00.083Z,49.20
2023-11-04T19:07:28.246Z,47.85
2023-11-04T19:09:56.052Z,49.05
2023-11-04T19:12:23.888Z,60.30
2023-11-04T19:14:52.743Z,57.88
2023-11-04T19:17:20.399Z,56.03
2023-11-04T19:19:48.169Z,63.78
2023-11-04T19:22:17.395Z,63.30
2023-11-04T19:24:45.097Z,61.90
2023-11-04T19:27:12.714Z,66.00
2023-11-04T19:29:40.453Z,64.75
2023-11-04T19:32:08.659Z,65.28
2023-11-04T19:34:36.290Z,61.25
2023-11-04T19:37:04.489Z,62.35
2023-11-04T19:39:33.518Z,64.88
2023-11-04T19:42:01.274Z,60.65
2023-11-04T19:44:29.547Z,66.75
2023-11-04T19:46:57.191Z,68.22
2023-11-04T19:49:24.894Z,67.68
2023-11-04T19:51:53.231Z,62.22
2023-11-04T19:54:20.896Z,63.70
2023-11-04T19:56:51.326Z,65.32
2023-11-04T19:59:19.358Z,59.00
2023-11-04T20:01:47.008Z,67.57
2023-11-04T20:04:14.991Z,55.70
2023-11-04T20:06:43.440Z,55.92
2023-11-04T20:09:11.555Z,62.78
2023-11-04T20:11:39.278Z,58.63
2023-11-04T20:14:08.604Z,64.80
2023-11-04T20:16:36.233Z,56.70
2023-11-04T20:19:04.816Z,65.10
2023-11-04T20:21:32.799Z,67.35
2023-11-04T20:24:00.425Z,63.90
2023-11-04T20:26:29.135Z,66.80
2023-11-04T20:28:56.950Z,66.00
2023-11-04T20:31:25.967Z,65.55
2023-11-04T20:33:56.062Z,57.83
2023-11-04T20:36:24.407Z,52.00
2023-11-04T20:38:53.065Z,48.88
2023-11-04T20:41:20.992Z,51.45
2023-11-04T20:43:48.929Z,48.45
2023-11-04T20:46:16.661Z,48.13
2023-11-04T20:48:45.715Z,48.73
2023-11-04T20:51:14.250Z,49.27
2023-11-04T20:53:42.177Z,51.50
2023-11-04T20:56:10.318Z,55.53
2023-11-04T20:58:39.271Z,53.30
2023-11-04T21:01:07.370Z,53.78
2023-11-04T21:03:35.012Z,55.67
2023-11-04T21:06:06.876Z,50.90
2023-11-04T21:08:35.744Z,50.75
2023-11-04T21:11:04.600Z,46.43
2023-11-04T21:13:37.164Z,48.37
2023-11-04T21:16:09.649Z,47.57
2023-11-04T21:18:37.647Z,44.07
2023-11-04T21:21:08.233Z,41.93
2023-11-04T21:23:36.525Z,45.93
2023-11-04T21:26:05.120Z,49.40
2023-11-04T21:28:33.043Z,43.92
2023-11-04T21:31:01.174Z,46.13
2023-11-04T21:33:31.842Z,47.07
2023-11-04T21:36:00.274Z,44.10
2023-11-04T21:38:29.504Z,48.65
2023-11-04T21:40:58.284Z,44.50
2023-11-04T21:43:26.152Z,48.33
2023-11-04T21:45:54.117Z,44.80
2023-11-04T21:48:23.162Z,47.28
2023-11-04T21:50:51.065Z,47.77
2023-11-04T21:53:18.735Z,45.07
2023-11-04T21:55:48.092Z,42.80
2023-11-04T21:58:15.762Z,47.63
2023-11-04T22:00:43.511Z,46.25
2023-11-04T22:03:11.425Z,46.87
2023-11-04T22:05:39.205Z,47.42
2023-11-04T22:08:07.785Z,43.72
2023-11-04T22:10:38.987Z,46.30
2023-11-04T22:13:08.473Z,46.78
2023-11-04T22:15:37.107Z,46.00
2023-11-04T22:18:05.217Z,45.83
2023-11-04T22:20:34.996Z,45.13
2023-11-04T22:23:03.420Z,44.27
2023-11-04T22:25:31.411Z,45.30
2023-11-04T22:27:59.225Z,45.57
2023-11-04T22:30:29.332Z,44.00
2023-11-04T22:32:57.140Z,44.30
2023-11-04T22:35:25.357Z,45.72
2023-11-04T22:37:53.270Z,44.03
2023-11-04T22:40:21.140Z,50.65
2023-11-04T22:42:49.179Z,47.63
2023-11-04T22:45:17.048Z,46.25
2023-11-04T22:47:46.445Z,46.70
2023-11-04T22:50:14.144Z,47.72
2023-11-04T22:52:41.834Z,47.90
2023-11-04T22:55:10.326Z,46.50
2023-11-04T22:57:37.994Z,46.97
2023-11-04T23:00:18.738Z,49.63
2023-11-04T23:02:48.201Z,45.03
2023-11-04T23:05:16.258Z,46.05
2023-11-04T23:07:43.958Z,50.05
2023-11-04T23:10:11.832Z,47.65
2023-11-04T23:12:39.832Z,50.38
2023-11-04T23:15:08.819Z,49.95
2023-11-04T23:17:36.903Z,57.70
2023-11-04T23:20:08.371Z,51.72
2023-11-04T23:22:36.246Z,52.45
2023-11-04T23:25:11.428Z,49.20
2023-11-04T23:27:46.619Z,47.38
2023-11-04T23:30:14.603Z,49.03
2023-11-04T23:32:42.375Z,50.88
2023-11-04T23:35:11.846Z,46.22
2023-11-04T23:37:39.605Z,48.35
2023-11-04T23:40:10.234Z,47.10
2023-11-04T23:42:38.327Z,47.65
2023-11-04T23:45:06.815Z,52.42
2023-11-04T23:47:34.831Z,50.45
2023-11-04T23:50:02.948Z,57.70
2023-11-04T23:52:32.027Z,57.60
2023-11-04T23:55:00.181Z,54.15
2023-11-04T23:57:27.842Z,59.65
2023-11-04T23:59:55.499Z,60.10
